createdAt,value
2022-08-28T00:00:17.472Z,18.80
2022-08-28T00:02:46.620Z,19.50
2022-08-28T00:05:16.009Z,20.60
2022-08-28T00:07:47.514Z,19.50
2022-08-28T00:10:17.232Z,19.50
2022-08-28T00:12:47.016Z,19.50
2022-08-28T00:15:20.621Z,19.40
2022-08-28T00:17:49.570Z,19.80
2022-08-28T00:20:18.998Z,19.40
2022-08-28T00:22:48.607Z,19.50
2022-08-28T00:25:19.307Z,19.30
2022-08-28T00:27:55.597Z,19.50
2022-08-28T00:30:44.221Z,19.30
2022-08-28T00:33:19.856Z,19.40
2022-08-28T00:35:51.721Z,19.30
2022-08-28T00:38:21.076Z,19.10
2022-08-28T00:40:52.651Z,19.20
2022-08-28T00:43:47.866Z,19.20
2022-08-28T00:46:20.362Z,19.30
2022-08-28T00:48:48.424Z,19.30
2022-08-28T00:51:36.817Z,19.40
2022-08-28T00:54:07.745Z,19.30
2022-08-28T00:56:36.376Z,19.30
2022-08-28T00:59:12.048Z,19.20
2022-08-28T01:01:39.478Z,19.20
2022-08-28T01:04:06.995Z,19.40
2022-08-28T01:06:35.871Z,19.30
2022-08-28T01:09:04.259Z,19.30
2022-08-28T01:11:32.619Z,19.30
2022-08-28T01:14:03.207Z,18.80
2022-08-28T01:16:33.861Z,19.30
2022-08-28T01:19:04.385Z,19.50
2022-08-28T01:21:47.155Z,19.30
2022-08-28T01:24:17.462Z,20.00
2022-08-28T01:26:44.959Z,19.20
2022-08-28T01:29:13.242Z,19.40
2022-08-28T01:31:41.093Z,19.80
2022-08-28T01:34:12.420Z,18.40
2022-08-28T01:36:40.493Z,18.90
2022-08-28T01:39:21.395Z,18.10
2022-08-28T01:41:52.111Z,19.20
2022-08-28T01:44:24.779Z,19.20
2022-08-28T01:46:58.278Z,19.30
2022-08-28T01:49:29.451Z,21.30
2022-08-28T01:51:58.096Z,19.10
2022-08-28T01:54:26.441Z,19.10
2022-08-28T01:56:55.093Z,19.20
2022-08-28T01:59:23.152Z,19.20
2022-08-28T02:01:50.183Z,20.40
2022-08-28T02:04:17.431Z,19.30
2022-08-28T02:06:44.538Z,18.00
2022-08-28T02:09:14.566Z,19.60
2022-08-28T02:11:46.349Z,19.10
2022-08-28T02:14:14.127Z,19.10
2022-08-28T02:16:41.116Z,19.00
2022-08-28T02:21:35.646Z,19.10
2022-08-28T02:24:03.265Z,19.00
2022-08-28T02:26:31.783Z,21.80
2022-08-28T02:28:59.522Z,19.10
2022-08-28T02:31:27.549Z,17.50
2022-08-28T02:33:55.590Z,17.60
2022-08-28T02:36:23.445Z,19.10
2022-08-28T02:38:57.346Z,19.00
2022-08-28T02:41:25.659Z,19.10
2022-08-28T02:43:53.295Z,19.10
2022-08-28T02:46:20.445Z,19.20
2022-08-28T02:48:47.466Z,19.10
2022-08-28T02:51:14.951Z,19.10
2022-08-28T02:53:43.193Z,19.00
2022-08-28T02:56:10.941Z,20.60
2022-08-28T02:58:39.622Z,17.70
2022-08-28T03:01:11.315Z,18.80
2022-08-28T03:03:40.925Z,19.00
2022-08-28T03:06:12.521Z,19.10
2022-08-28T03:08:42.090Z,19.00
2022-08-28T03:13:36.921Z,18.90
2022-08-28T03:16:05.029Z,18.70
2022-08-28T03:18:33.130Z,19.00
2022-08-28T03:21:00.874Z,19.00
2022-08-28T03:23:28.017Z,19.20
2022-08-28T03:25:58.065Z,18.90
2022-08-28T03:28:31.798Z,19.10
2022-08-28T03:30:59.193Z,18.80
2022-08-28T03:33:26.842Z,18.70
2022-08-28T03:35:55.598Z,18.90
2022-08-28T03:38:23.021Z,18.30
2022-08-28T03:40:53.444Z,19.10
2022-08-28T03:43:24.415Z,18.50
2022-08-28T03:46:01.279Z,18.80
2022-08-28T03:48:34.729Z,18.90
2022-08-28T03:51:02.318Z,18.90
2022-08-28T03:53:30.237Z,19.00
2022-08-28T03:55:58.080Z,18.60
2022-08-28T03:58:26.797Z,19.00
2022-08-28T04:00:54.460Z,18.90
2022-08-28T04:03:21.648Z,19.80
2022-08-28T04:05:48.765Z,19.10
2022-08-28T04:08:18.390Z,18.80
2022-08-28T04:10:47.198Z,18.90
2022-08-28T04:13:16.838Z,17.00
2022-08-28T04:15:44.096Z,18.80
2022-08-28T04:18:12.217Z,18.90
2022-08-28T04:20:40.100Z,18.80
2022-08-28T04:23:09.921Z,18.70
2022-08-28T04:25:40.789Z,19.20
2022-08-28T04:28:07.926Z,18.30
2022-08-28T04:30:35.044Z,18.80
2022-08-28T04:33:02.373Z,18.90
2022-08-28T04:35:29.425Z,19.80
2022-08-28T04:37:58.817Z,18.80
2022-08-28T04:40:26.119Z,21.30
2022-08-28T04:42:53.198Z,18.90
2022-08-28T04:45:20.181Z,18.90
2022-08-28T04:47:47.181Z,18.80
2022-08-28T04:50:15.240Z,18.70
2022-08-28T04:52:43.463Z,18.00
2022-08-28T04:55:10.900Z,18.80
2022-08-28T04:57:37.894Z,19.00
2022-08-28T05:00:07.114Z,18.70
2022-08-28T05:02:34.127Z,18.70
2022-08-28T05:05:01.224Z,18.80
2022-08-28T05:07:29.373Z,19.10
2022-08-28T05:09:57.138Z,18.70
2022-08-28T05:12:24.701Z,18.90
2022-08-28T05:14:51.681Z,18.70
2022-08-28T05:17:18.699Z,18.70
2022-08-28T05:19:45.781Z,18.00
2022-08-28T05:22:12.769Z,18.80
2022-08-28T05:24:40.183Z,18.70
2022-08-28T05:27:09.131Z,18.50
2022-08-28T05:29:36.518Z,18.20
2022-08-28T05:32:04.807Z,18.70
2022-08-28T05:34:31.892Z,18.70
2022-08-28T05:39:26.422Z,18.70
2022-08-28T05:41:53.753Z,18.70
2022-08-28T05:44:20.999Z,18.80
2022-08-28T05:46:48.615Z,18.50
2022-08-28T05:49:18.226Z,18.70
2022-08-28T05:51:46.173Z,18.80
2022-08-28T05:54:15.599Z,18.40
2022-08-28T05:56:45.157Z,18.60
2022-08-28T05:59:14.264Z,19.90
2022-08-28T06:01:47.792Z,18.80
2022-08-28T06:04:23.363Z,20.90
2022-08-28T06:06:50.678Z,18.20
2022-08-28T06:09:29.930Z,18.70
2022-08-28T06:11:59.832Z,18.60
2022-08-28T06:14:27.689Z,18.70
2022-08-28T06:16:57.194Z,18.60
2022-08-28T06:19:27.003Z,18.80
2022-08-28T06:22:00.893Z,20.40
2022-08-28T06:24:29.379Z,18.80
2022-08-28T06:26:58.695Z,18.60
2022-08-28T06:29:27.799Z,18.70
2022-08-28T06:31:58.964Z,18.60
2022-08-28T06:34:27.253Z,18.80
2022-08-28T06:36:55.440Z,18.70
2022-08-28T06:39:23.574Z,18.70
2022-08-28T06:41:50.617Z,18.50
2022-08-28T06:44:20.809Z,17.00
2022-08-28T06:46:53.987Z,18.70
2022-08-28T06:51:49.238Z,19.00
2022-08-28T06:54:22.226Z,19.20
2022-08-28T06:56:51.850Z,18.80
2022-08-28T06:59:18.880Z,18.80
2022-08-28T07:01:45.966Z,18.70
2022-08-28T07:04:16.063Z,18.90
2022-08-28T07:06:53.764Z,18.80
2022-08-28T07:09:23.861Z,18.90
2022-08-28T07:11:51.350Z,18.80
2022-08-28T07:14:18.598Z,20.60
2022-08-28T07:16:46.026Z,18.90
2022-08-28T07:19:13.721Z,19.10
2022-08-28T07:21:43.976Z,18.80
2022-08-28T07:24:13.668Z,19.00
2022-08-28T07:26:43.504Z,18.50
2022-08-28T07:29:12.034Z,21.30
2022-08-28T07:31:43.949Z,19.10
2022-08-28T07:34:12.637Z,18.90
2022-08-28T07:36:40.522Z,19.00
2022-08-28T07:39:08.734Z,20.10
2022-08-28T07:41:39.314Z,19.10
2022-08-28T07:44:26.431Z,19.00
2022-08-28T07:46:55.888Z,19.10
2022-08-28T07:49:24.091Z,19.20
2022-08-28T07:51:54.054Z,19.00
2022-08-28T07:54:23.264Z,19.10
2022-08-28T07:56:51.476Z,19.00
2022-08-28T07:59:19.626Z,17.30
2022-08-28T08:01:48.778Z,19.10
2022-08-28T08:04:17.523Z,18.10
2022-08-28T08:06:45.259Z,19.20
2022-08-28T08:09:16.065Z,19.20
2022-08-28T08:11:43.885Z,19.20
2022-08-28T08:14:11.993Z,18.80
2022-08-28T08:16:43.399Z,19.20
2022-08-28T08:19:14.092Z,19.70
2022-08-28T08:21:48.432Z,19.20
2022-08-28T08:24:26.831Z,19.30
2022-08-28T08:27:00.739Z,19.20
2022-08-28T08:29:32.359Z,19.30
2022-08-28T08:32:07.876Z,19.30
2022-08-28T08:34:41.424Z,19.80
2022-08-28T08:37:09.152Z,19.30
2022-08-28T08:39:37.317Z,18.90
2022-08-28T08:42:20.178Z,19.40
2022-08-28T08:44:48.767Z,19.60
2022-08-28T08:47:32.774Z,19.40
2022-08-28T08:50:05.900Z,19.70
2022-08-28T08:52:52.907Z,19.40
2022-08-28T08:55:24.587Z,20.00
2022-08-28T08:58:12.317Z,19.70
2022-08-28T09:01:22.180Z,19.10
2022-08-28T09:03:49.240Z,19.70
2022-08-28T09:06:29.813Z,19.70
2022-08-28T09:09:03.025Z,19.90
2022-08-28T09:11:56.563Z,21.10
2022-08-28T09:14:57.597Z,19.90
2022-08-28T09:17:33.892Z,20.00
2022-08-28T09:20:01.240Z,19.80
2022-08-28T09:22:28.235Z,19.90
2022-08-28T09:24:55.433Z,19.90
2022-08-28T09:27:27.935Z,19.80
2022-08-28T09:30:08.065Z,19.60
2022-08-28T09:32:45.726Z,20.00
2022-08-28T09:35:27.144Z,20.10
2022-08-28T09:37:54.668Z,20.20
2022-08-28T09:40:50.058Z,20.40
2022-08-28T09:43:27.688Z,19.20
2022-08-28T09:46:21.437Z,20.20
2022-08-28T09:48:52.357Z,20.10
2022-08-28T09:51:22.305Z,19.90
2022-08-28T09:53:52.287Z,20.30
2022-08-28T09:56:25.923Z,20.60
2022-08-28T09:59:00.114Z,21.10
2022-08-28T10:01:43.396Z,20.30
2022-08-28T10:04:37.070Z,19.10
2022-08-28T10:07:18.484Z,20.20
2022-08-28T10:10:32.592Z,20.40
2022-08-28T10:13:31.275Z,20.70
2022-08-28T10:16:56.868Z,20.70
2022-08-28T10:19:41.262Z,20.60
2022-08-28T10:22:25.459Z,21.30
2022-08-28T10:25:07.407Z,20.40
2022-08-28T10:28:19.392Z,20.90
2022-08-28T10:30:55.857Z,20.70
2022-08-28T10:33:41.048Z,20.60
2022-08-28T10:36:33.488Z,20.70
2022-08-28T10:39:22.785Z,20.70
2022-08-28T10:42:01.998Z,20.80
2022-08-28T10:44:49.565Z,20.90
2022-08-28T10:47:20.238Z,20.60
2022-08-28T10:49:53.565Z,20.70
2022-08-28T10:52:39.092Z,20.20
2022-08-28T10:55:23.097Z,21.00
2022-08-28T10:58:24.269Z,21.00
2022-08-28T11:01:06.373Z,21.00
2022-08-28T11:03:47.004Z,21.10
2022-08-28T11:06:27.390Z,21.10
2022-08-28T11:08:59.368Z,20.30
2022-08-28T11:11:46.687Z,21.20
2022-08-28T11:14:48.372Z,20.80
2022-08-28T11:17:25.401Z,21.20
2022-08-28T11:20:22.768Z,21.00
2022-08-28T11:23:07.829Z,21.20
2022-08-28T11:25:57.621Z,21.10
2022-08-28T11:28:25.870Z,21.20
2022-08-28T11:30:58.938Z,21.40
2022-08-28T11:33:49.839Z,22.30
2022-08-28T11:36:19.839Z,22.00
2022-08-28T11:38:53.118Z,22.20
2022-08-28T11:41:22.561Z,22.20
2022-08-28T11:44:09.227Z,22.00
2022-08-28T11:46:41.246Z,22.40
2022-08-28T11:49:26.588Z,22.60
2022-08-28T11:52:34.301Z,21.60
2022-08-28T11:55:29.808Z,22.30
2022-08-28T11:58:16.187Z,22.60
2022-08-28T12:01:01.613Z,23.60
2022-08-28T12:03:59.170Z,22.00
2022-08-28T12:06:45.307Z,22.20
2022-08-28T12:09:39.142Z,22.20
2022-08-28T12:12:20.904Z,22.70
2022-08-28T12:14:47.814Z,22.70
2022-08-28T12:17:31.148Z,21.60
2022-08-28T12:20:10.633Z,22.30
2022-08-28T12:23:01.050Z,22.10
2022-08-28T12:26:00.826Z,22.20
2022-08-28T12:28:55.518Z,22.30
2022-08-28T12:31:55.983Z,22.00
2022-08-28T12:34:31.543Z,22.00
2022-08-28T12:37:03.390Z,22.10
2022-08-28T12:39:33.398Z,21.60
2022-08-28T12:42:03.735Z,22.40
2022-08-28T12:44:33.338Z,22.50
2022-08-28T12:47:00.702Z,21.00
2022-08-28T12:49:37.054Z,23.00
2022-08-28T12:52:21.312Z,23.60
2022-08-28T12:54:51.566Z,24.10
2022-08-28T12:57:22.556Z,24.00
2022-08-28T12:59:55.534Z,24.10
2022-08-28T13:02:33.664Z,23.80
2022-08-28T13:05:07.856Z,23.20
2022-08-28T13:07:45.034Z,24.10
2022-08-28T13:10:39.255Z,23.80
2022-08-28T13:13:19.598Z,23.50
2022-08-28T13:15:57.913Z,22.10
2022-08-28T13:18:43.117Z,23.90
2022-08-28T13:21:31.718Z,22.30
2022-08-28T13:24:23.773Z,22.80
2022-08-28T13:27:24.171Z,22.70
2022-08-28T13:29:59.862Z,23.70
2022-08-28T13:32:31.683Z,21.50
2022-08-28T13:35:21.954Z,22.70
2022-08-28T13:37:51.550Z,21.80
2022-08-28T13:40:55.796Z,24.20
2022-08-28T13:43:13.738Z,23.60
2022-08-28T13:45:45.196Z,25.20
2022-08-28T13:48:26.655Z,22.80
2022-08-28T13:51:00.092Z,23.30
2022-08-28T13:53:27.334Z,23.60
2022-08-28T13:55:54.530Z,24.40
2022-08-28T13:58:21.517Z,23.90
2022-08-28T14:00:51.894Z,23.90
2022-08-28T14:03:38.811Z,24.70
2022-08-28T14:06:12.261Z,24.60
2022-08-28T14:08:45.089Z,24.30
2022-08-28T14:11:15.078Z,24.20
2022-08-28T14:13:47.028Z,23.90
2022-08-28T14:16:23.553Z,23.50
2022-08-28T14:18:53.163Z,23.00
2022-08-28T14:21:21.431Z,23.60
2022-08-28T14:23:48.442Z,23.50
2022-08-28T14:26:15.435Z,23.40
2022-08-28T14:31:14.250Z,23.50
2022-08-28T14:33:45.264Z,25.10
2022-08-28T14:36:21.218Z,24.00
2022-08-28T14:38:53.690Z,24.30
2022-08-28T14:41:23.565Z,24.10
2022-08-28T14:43:51.525Z,24.60
2022-08-28T14:46:34.396Z,24.00
2022-08-28T14:49:08.418Z,23.70
2022-08-28T14:51:38.876Z,23.80
2022-08-28T14:54:07.562Z,24.40
2022-08-28T14:56:35.691Z,24.50
2022-08-28T14:59:06.023Z,24.40
2022-08-28T15:01:40.915Z,23.90
2022-08-28T15:04:13.382Z,24.30
2022-08-28T15:06:42.602Z,24.30
2022-08-28T15:09:15.034Z,24.20
2022-08-28T15:11:43.745Z,24.30
2022-08-28T15:14:11.735Z,24.10
2022-08-28T15:16:42.984Z,24.10
2022-08-28T15:19:12.351Z,23.80
2022-08-28T15:21:54.402Z,23.50
2022-08-28T15:24:26.563Z,23.60
2022-08-28T15:26:53.918Z,24.30
2022-08-28T15:29:21.259Z,23.90
2022-08-28T15:31:50.508Z,23.70
2022-08-28T15:34:28.656Z,23.80
2022-08-28T15:36:57.269Z,23.90
2022-08-28T15:39:47.804Z,25.20
2022-08-28T15:42:15.734Z,23.70
2022-08-28T15:44:43.054Z,23.50
2022-08-28T15:47:10.690Z,24.20
2022-08-28T15:49:43.486Z,24.10
2022-08-28T15:52:18.492Z,24.10
2022-08-28T15:54:45.512Z,24.10
2022-08-28T15:57:12.523Z,23.80
2022-08-28T15:59:50.023Z,24.20
2022-08-28T16:02:23.881Z,24.40
2022-08-28T16:04:53.310Z,24.30
2022-08-28T16:07:22.405Z,24.20
2022-08-28T16:09:50.342Z,24.20
2022-08-28T16:12:18.235Z,24.00
2022-08-28T16:14:45.261Z,23.90
2022-08-28T16:17:12.514Z,23.70
2022-08-28T16:19:40.428Z,23.60
2022-08-28T16:22:09.281Z,23.50
2022-08-28T16:24:37.189Z,23.60
2022-08-28T16:27:06.411Z,22.60
2022-08-28T16:29:36.735Z,23.40
2022-08-28T16:32:05.458Z,23.50
2022-08-28T16:34:33.895Z,23.60
2022-08-28T16:37:01.391Z,23.80
2022-08-28T16:39:29.098Z,23.60
2022-08-28T16:41:56.177Z,23.80
2022-08-28T16:44:26.614Z,23.80
2022-08-28T16:46:55.437Z,23.30
2022-08-28T16:49:23.612Z,23.40
2022-08-28T16:51:51.046Z,23.50
2022-08-28T16:54:18.507Z,23.50
2022-08-28T16:56:46.158Z,23.60
2022-08-28T16:59:17.401Z,23.40
2022-08-28T17:01:44.704Z,23.40
2022-08-28T17:04:12.299Z,23.40
2022-08-28T17:06:40.097Z,23.50
2022-08-28T17:09:07.240Z,23.60
2022-08-28T17:11:34.301Z,22.90
2022-08-28T17:14:02.039Z,23.30
2022-08-28T17:16:32.809Z,23.30
2022-08-28T17:19:00.028Z,22.40
2022-08-28T17:21:45.317Z,23.30
2022-08-28T17:24:13.174Z,23.80
2022-08-28T17:26:41.721Z,23.40
2022-08-28T17:29:08.793Z,23.10
2022-08-28T17:31:36.183Z,23.40
2022-08-28T17:34:03.612Z,23.30
2022-08-28T17:39:12.010Z,23.30
2022-08-28T17:41:41.626Z,23.40
2022-08-28T17:44:09.205Z,23.20
2022-08-28T17:46:38.068Z,23.20
2022-08-28T17:49:07.591Z,23.10
2022-08-28T17:51:43.544Z,23.20
2022-08-28T17:54:13.930Z,23.50
2022-08-28T17:56:41.769Z,23.20
2022-08-28T17:59:10.064Z,23.10
2022-08-28T18:04:05.801Z,23.30
2022-08-28T18:06:33.028Z,24.10
2022-08-28T18:09:00.533Z,23.00
2022-08-28T18:11:28.537Z,23.50
2022-08-28T18:13:55.756Z,23.20
2022-08-28T18:16:26.480Z,23.50
2022-08-28T18:18:57.089Z,23.10
2022-08-28T18:21:24.480Z,23.10
2022-08-28T18:23:51.628Z,21.80
2022-08-28T18:26:18.747Z,22.90
2022-08-28T18:28:46.260Z,22.80
2022-08-28T18:31:13.666Z,22.20
2022-08-28T18:33:40.774Z,22.40
2022-08-28T18:36:10.688Z,22.80
2022-08-28T18:38:38.234Z,22.70
2022-08-28T18:41:07.192Z,22.60
2022-08-28T18:43:34.872Z,22.60
2022-08-28T18:46:03.966Z,22.70
2022-08-28T18:48:31.914Z,22.60
2022-08-28T18:50:58.990Z,22.50
2022-08-28T18:53:26.533Z,22.60
2022-08-28T18:55:55.107Z,22.50
2022-08-28T18:58:23.391Z,22.60
2022-08-28T19:00:51.257Z,22.70
2022-08-28T19:05:46.181Z,22.40
2022-08-28T19:08:14.290Z,22.30
2022-08-28T19:10:41.871Z,22.30
2022-08-28T19:13:09.102Z,22.20
2022-08-28T19:15:37.245Z,23.20
2022-08-28T19:18:05.544Z,22.40
2022-08-28T19:20:33.401Z,22.40
2022-08-28T19:23:00.884Z,22.20
2022-08-28T19:25:30.578Z,22.20
2022-08-28T19:27:59.883Z,22.20
2022-08-28T19:30:31.150Z,21.90
2022-08-28T19:32:59.033Z,22.20
2022-08-28T19:35:26.349Z,20.40
2022-08-28T19:37:54.070Z,22.00
2022-08-28T19:40:22.041Z,21.90
2022-08-28T19:42:50.131Z,22.00
2022-08-28T19:45:18.275Z,22.10
2022-08-28T19:47:46.896Z,21.90
2022-08-28T19:50:15.097Z,21.80
2022-08-28T19:52:43.651Z,22.00
2022-08-28T19:55:19.251Z,22.70
2022-08-28T19:57:48.384Z,21.90
2022-08-28T20:00:22.728Z,21.80
2022-08-28T20:02:52.251Z,21.80
2022-08-28T20:05:21.314Z,21.80
2022-08-28T20:07:49.140Z,21.60
2022-08-28T20:10:16.861Z,21.70
2022-08-28T20:12:48.361Z,21.60
2022-08-28T20:15:18.239Z,21.80
2022-08-28T20:17:49.491Z,21.60
2022-08-28T20:20:20.660Z,21.60
2022-08-28T20:22:47.946Z,21.60
2022-08-28T20:25:15.707Z,21.70
2022-08-28T20:27:42.718Z,21.50
2022-08-28T20:30:11.522Z,22.80
2022-08-28T20:32:40.866Z,21.60
2022-08-28T20:35:10.693Z,21.70
2022-08-28T20:37:45.382Z,21.60
2022-08-28T20:40:17.161Z,20.30
2022-08-28T20:42:45.159Z,21.50
2022-08-28T20:45:15.270Z,21.50
2022-08-28T20:47:42.739Z,21.40
2022-08-28T20:50:11.175Z,21.60
2022-08-28T20:52:39.200Z,22.00
2022-08-28T20:55:08.193Z,21.30
2022-08-28T20:57:35.970Z,21.30
2022-08-28T21:00:08.366Z,21.30
2022-08-28T21:02:35.590Z,21.30
2022-08-28T21:05:02.914Z,22.00
2022-08-28T21:07:30.257Z,21.10
2022-08-28T21:10:04.124Z,21.30
2022-08-28T21:12:36.761Z,21.10
2022-08-28T21:15:06.581Z,21.10
2022-08-28T21:17:33.895Z,21.80
2022-08-28T21:20:05.979Z,21.10
2022-08-28T21:22:35.389Z,21.10
2022-08-28T21:25:05.672Z,21.10
2022-08-28T21:27:32.874Z,20.60
2022-08-28T21:30:00.832Z,21.00
2022-08-28T21:32:29.451Z,21.00
2022-08-28T21:34:57.281Z,20.80
2022-08-28T21:37:24.414Z,20.80
2022-08-28T21:39:52.108Z,20.70
2022-08-28T21:42:21.042Z,20.90
2022-08-28T21:44:51.941Z,20.90
2022-08-28T21:47:22.928Z,20.70
2022-08-28T21:49:52.706Z,20.80
2022-08-28T21:52:22.030Z,20.80
2022-08-28T21:54:49.374Z,20.70
2022-08-28T21:57:17.772Z,20.80
2022-08-28T21:59:44.851Z,20.60
2022-08-28T22:02:12.007Z,21.00
2022-08-28T22:04:39.117Z,20.80
2022-08-28T22:07:06.644Z,20.70
2022-08-28T22:09:33.730Z,20.60
2022-08-28T22:12:01.351Z,20.40
2022-08-28T22:14:28.523Z,20.60
2022-08-28T22:16:56.079Z,20.90
2022-08-28T22:19:23.224Z,20.70
2022-08-28T22:22:09.102Z,20.50
2022-08-28T22:24:37.583Z,20.50
2022-08-28T22:27:06.009Z,20.50
2022-08-28T22:29:36.544Z,20.50
2022-08-28T22:32:06.063Z,20.90
2022-08-28T22:34:42.235Z,20.40
2022-08-28T22:37:11.537Z,20.00
2022-08-28T22:39:40.411Z,20.60
2022-08-28T22:42:08.312Z,20.40
2022-08-28T22:44:36.000Z,21.40
2022-08-28T22:47:03.550Z,20.10
2022-08-28T22:49:30.811Z,20.40
2022-08-28T22:54:27.721Z,20.30
2022-08-28T22:56:54.711Z,20.20
2022-08-28T22:59:22.209Z,20.30
2022-08-28T23:01:49.356Z,20.30
2022-08-28T23:04:16.464Z,22.20
2022-08-28T23:06:43.681Z,21.40
2022-08-28T23:09:11.146Z,20.10
2022-08-28T23:11:38.453Z,20.20
2022-08-28T23:14:05.995Z,20.10
2022-08-28T23:16:35.195Z,20.10
2022-08-28T23:19:08.901Z,19.90
2022-08-28T23:21:40.752Z,20.00
2022-08-28T23:24:11.847Z,21.00
2022-08-28T23:26:38.834Z,20.00
2022-08-28T23:29:05.886Z,19.90
2022-08-28T23:31:33.029Z,19.80
2022-08-28T23:34:00.413Z,20.00
2022-08-28T23:36:27.520Z,20.00
2022-08-28T23:41:22.103Z,20.00
2022-08-28T23:46:18.333Z,20.20
2022-08-28T23:48:45.946Z,19.70
2022-08-28T23:51:16.998Z,19.50
2022-08-28T23:53:45.349Z,20.60
2022-08-28T23:56:12.833Z,19.80
2022-08-28T23:58:43.262Z,19.80
